Flight Track Log - Related Links

Times and Time Zones

All times are in EDT time to prevent confusion due to time zone crossing. See the N779NC flight status page for this flight to view local times or setup timezone preferences in your user account.

Time Position Orientation Groundspeed Altitude Reporting Facility
EDT Latitude Longitude Course Direction KTS MPH feet Rate Location/Type
Sat 10:01:05 AM 36.1833 -86.6667 360° North 190 219 2,200  Level Nashville TRACON
Sat 10:02:05 AM 36.2333 -86.6333 28° Northeast 238 274 3,600 1,500 Climbing Nashville TRACON
Sat 10:03:00 AM 36.5578 -86.8789 338° Northwest  Level FlightAware Approximate
Sat 10:03:05 AM 36.3000 -86.6000 22° Northeast 257 296 5,200  Level Nashville TRACON
Sat 10:04:00 AM 36.6675 -86.9338 338° Northwest  Level FlightAware Approximate
Sat 10:04:14 AM 36.3775 -86.6247 346° North 288 331 7,600  Level Memphis Center
Sat 10:05:00 AM 36.7784 -86.9851 340° North  Level FlightAware Approximate
Sat 10:05:14 AM 36.4553 -86.6469 347° North 283 326 9,800  Level Memphis Center
Sat 10:06:14 AM 36.5392 -86.6611 352° North 288 331 11,400 1,450 Climbing Memphis Center
Sat 10:07:14 AM 36.6356 -86.6772 352° North 326 375 12,700 1,450 Climbing Memphis Center
Sat 10:08:14 AM 36.7381 -86.6961 352° North 361 415 14,300 1,700 Climbing Memphis Center
Sat 10:09:14 AM 36.8467 -86.7014 358° North 388 447 16,100 1,714 Climbing Memphis Center
Sat 10:09:45 AM 36.9028 -86.7019 360° North 396 456 16,900 1,226 Climbing Indianapolis Center
Sat 10:10:47 AM 37.0192 -86.7100 357° North 413 475 18,000 1,268 Climbing Indianapolis Center
Sat 10:11:48 AM 37.1397 -86.6908 North 429 494 19,500 1,463 Climbing Indianapolis Center
Sat 10:12:50 AM 37.2636 -86.6758 North 440 506 21,000 1,463 Climbing Indianapolis Center
Sat 10:13:51 AM 37.4086 -86.6522 North 446 513 22,500 1,230 Climbing Indianapolis Center
Sat 10:14:52 AM 37.5389 -86.6361 North 461 531 23,500 1,024 Climbing Indianapolis Center
Sat 10:15:54 AM 37.6614 -86.6181 North 470 541 24,600 1,024 Climbing Indianapolis Center
Sat 10:16:55 AM 37.7928 -86.6100 North 473 544 25,600 927 Climbing Indianapolis Center
Sat 10:17:57 AM 37.9286 -86.5950 North 487 560 26,500 829 Climbing Indianapolis Center
Sat 10:18:58 AM 38.0644 -86.5797 North 491 565 27,300 836 Climbing Indianapolis Center
Sat 10:19:59 AM 38.2028 -86.5739 North 498 573 28,200 829 Climbing Indianapolis Center
Sat 10:21:01 AM 38.3689 -86.5594 North 501 577 29,000 390 Climbing Indianapolis Center
Sat 10:22:02 AM 38.5081 -86.5386 North 505 581 29,000  Level Indianapolis Center
Sat 10:23:04 AM 38.6536 -86.5247 North 524 603 29,000  Level Indianapolis Center
Sat 10:24:05 AM 38.8003 -86.5033 North 530 610 29,000  Level Indianapolis Center
Sat 10:25:06 AM 38.9383 -86.4933 North 527 606 29,000  Level Indianapolis Center
Sat 10:26:08 AM 39.0839 -86.4797 North 526 605 29,000 -49 Level Indianapolis Center
Sat 10:27:09 AM 39.2569 -86.4614 North 521 600 28,900 -488 Descending Indianapolis Center
Sat 10:28:11 AM 39.3939 -86.4033 18° North 524 603 28,000 -683 Descending Indianapolis Center
Sat 10:29:12 AM 39.5250 -86.3264 24° Northeast 521 600 27,500 -439 Descending Indianapolis Center
Sat 10:30:14 AM 39.6536 -86.2583 22° Northeast 509 586 27,100 -195 Descending Indianapolis Center
Sat 10:31:15 AM 39.7983 -86.1750 24° Northeast 502 578 27,100  Level Indianapolis Center
Sat 10:32:16 AM 39.9189 -86.0869 29° Northeast 501 577 27,100 -98 Level Indianapolis Center
Sat 10:33:18 AM 40.0394 -85.9942 30° Northeast 504 580 26,900 -55 Descending Indianapolis Center
Sat 10:34:05 AM 40.1381 -85.9258 28° Northeast 505 581 27,000  Climbing Chicago Center
Sat 10:35:07 AM 40.2569 -85.8594 23° Northeast 476 548 26,900 -532 Descending Chicago Center
Sat 10:36:09 AM 40.3719 -85.8664 357° North 431 496 25,900 -774 Descending Chicago Center
Sat 10:37:11 AM 40.4861 -85.8864 352° North 417 480 25,300 -484 Descending Chicago Center
Sat 10:38:13 AM 40.6006 -85.8681 North 423 487 24,900 -145 Descending Chicago Center
Sat 10:39:15 AM 40.6425 -85.7161 70° East 386 444 25,000 -290 Climbing Chicago Center
Sat 10:40:17 AM 40.6572 -85.5781 82° East 385 443 24,300 -439 Descending Chicago Center
Sat 10:41:18 AM 40.6925 -85.4536 69° East 419 482 24,100 -146 Descending Chicago Center
Sat 10:42:20 AM 40.8075 -85.3564 33° Northeast 408 470 24,000 -339 Descending Chicago Center
Sat 10:43:22 AM 40.9053 -85.2808 30° Northeast 409 471 23,400 -823 Descending Chicago Center
Sat 10:44:24 AM 40.9942 -85.1981 35° Northeast 396 456 22,300 -1,016 Descending Chicago Center
Sat 10:45:26 AM 41.0722 -85.0906 46° Northeast 403 464 21,300 -629 Descending Chicago Center
Sat 10:46:28 AM 41.1661 -84.9817 41° Northeast 441 507 21,000 -146 Descending Chicago Center
Sat 10:47:29 AM 41.2633 -84.8781 39° Northeast 453 521 21,000  Level Chicago Center
Sat 10:48:31 AM 41.3864 -84.7603 36° Northeast 457 526 21,000  Level Chicago Center
Sat 10:49:33 AM 41.4803 -84.6650 37° Northeast 433 498 21,000 -1,065 Level Chicago Center
Sat 10:50:35 AM 41.5775 -84.6131 22° Northeast 396 456 18,800 -1,697 Descending Chicago Center
Sat 10:51:12 AM 41.6411 -84.6125 360° North 386 444 18,200 -495 Descending Cleveland Center
Sat 10:52:12 AM 41.7394 -84.5964 North 365 420 18,000 -550 Descending Cleveland Center
Sat 10:53:12 AM 41.8097 -84.4975 46° Northeast 344 396 17,100 -1,375 Descending Cleveland Center
Sat 10:53:48 AM 41.8131 -84.4003 87° East 363 418 15,800 -2,100 Descending Cleveland Center
Sat 10:55:12 AM 41.8314 -84.2203 82° East 320 368 12,900 -1,625 Descending Cleveland Center
Sat 10:56:12 AM 41.8581 -84.0989 74° East 333 383 11,900 -450 Descending Cleveland Center
Sat 10:57:12 AM 41.9236 -84.0022 48° Northeast 326 375 12,000 50 Climbing Cleveland Center
Sat 10:58:12 AM 41.9503 -83.8750 74° East 331 381 12,000  Level Cleveland Center
Sat 10:58:42 AM 41.9667 -83.8144 70° East 348 400 12,000  Level Cleveland Center
Sat 10:59:12 AM 41.9889 -83.7625 60° Northeast 336 387 12,000  Level Cleveland Center
Sat 11:00:12 AM 42.0619 -83.6767 41° Northeast 329 379 12,000  Level Cleveland Center
Sat 11:01:12 AM 42.1331 -83.5906 42° Northeast 334 384 12,000 -300 Level Cleveland Center
Sat 11:02:12 AM 42.2053 -83.5406 27° Northeast 310 357 11,400 -900 Descending Cleveland Center
Sat 11:03:12 AM 42.2714 -83.4875 31° Northeast 287 330 10,200 -1,324 Descending Cleveland Center
Sat 11:04:37 AM 42.3628 -83.4186 29° Northeast 255 293 8,200 -1,412 Descending Cleveland Center

Login

Don't have an account? Register now (free) for customized features, flight alerts, and more!